createdAt,value
2017-07-05T00:01:06.956Z,86.20
2017-07-05T00:03:34.028Z,86.10
2017-07-05T00:06:00.516Z,86.10
2017-07-05T00:08:27.013Z,86.10
2017-07-05T00:10:53.531Z,86.10
2017-07-05T00:13:21.222Z,85.80
2017-07-05T00:15:47.770Z,85.80
2017-07-05T00:18:14.220Z,85.70
2017-07-05T00:20:41.503Z,85.50
2017-07-05T00:23:08.058Z,85.50
2017-07-05T00:25:34.491Z,85.80
2017-07-05T00:28:01.585Z,85.70
2017-07-05T00:30:28.732Z,86.00
2017-07-05T00:32:55.979Z,86.10
2017-07-05T00:35:22.488Z,86.00
2017-07-05T00:37:48.976Z,86.20
2017-07-05T00:40:15.513Z,86.20
2017-07-05T00:42:41.953Z,86.30
2017-07-05T00:45:08.388Z,86.20
2017-07-05T00:47:34.825Z,86.10
2017-07-05T00:50:01.265Z,86.10
2017-07-05T00:52:27.783Z,86.20
2017-07-05T00:54:55.060Z,86.70
2017-07-05T00:57:21.538Z,86.70
2017-07-05T00:59:47.958Z,86.90
2017-07-05T01:02:15.196Z,86.60
2017-07-05T01:04:41.606Z,86.50
2017-07-05T01:07:08.047Z,86.20
2017-07-05T01:09:35.391Z,86.20
2017-07-05T01:12:01.824Z,87.00
2017-07-05T01:14:28.247Z,86.40
2017-07-05T01:16:54.800Z,86.40
2017-07-05T01:19:21.244Z,86.40
2017-07-05T01:21:48.454Z,86.70
2017-07-05T01:24:15.094Z,86.70
2017-07-05T01:26:41.576Z,86.70
2017-07-05T01:29:08.045Z,87.40
2017-07-05T01:31:34.487Z,87.30
2017-07-05T01:34:00.965Z,87.50
2017-07-05T01:36:27.454Z,87.60
2017-07-05T01:38:55.302Z,88.30
2017-07-05T01:41:21.762Z,87.50
2017-07-05T01:43:48.224Z,87.40
2017-07-05T01:46:14.830Z,87.70
2017-07-05T01:48:41.323Z,88.00
2017-07-05T01:51:07.873Z,88.40
2017-07-05T01:53:34.302Z,88.70
2017-07-05T01:56:00.856Z,88.70
2017-07-05T01:58:27.418Z,88.80
2017-07-05T02:00:53.856Z,89.00
2017-07-05T02:03:20.330Z,89.30
2017-07-05T02:05:46.916Z,89.80
2017-07-05T02:08:13.373Z,90.10
2017-07-05T02:10:39.816Z,90.10
2017-07-05T02:13:06.269Z,90.30
2017-07-05T02:15:32.732Z,90.50
2017-07-05T02:17:59.209Z,90.50
2017-07-05T02:20:25.690Z,90.60
2017-07-05T02:22:52.145Z,90.60
2017-07-05T02:25:18.597Z,90.60
2017-07-05T02:27:45.554Z,90.70
2017-07-05T02:30:12.035Z,90.60
2017-07-05T02:32:38.474Z,90.60
2017-07-05T02:35:04.975Z,90.30
2017-07-05T02:37:31.438Z,90.30
2017-07-05T02:39:57.898Z,90.40
2017-07-05T02:42:24.332Z,90.50
2017-07-05T02:44:51.617Z,90.50
2017-07-05T02:47:18.054Z,90.50
2017-07-05T02:49:45.254Z,90.50
2017-07-05T02:52:12.321Z,90.50
2017-07-05T02:54:38.875Z,90.50
2017-07-05T02:57:05.335Z,90.50
2017-07-05T02:59:31.774Z,90.40
2017-07-05T03:01:58.969Z,90.40
2017-07-05T03:04:25.476Z,90.40
2017-07-05T03:06:52.552Z,90.60
2017-07-05T03:09:19.029Z,90.50
2017-07-05T03:11:45.520Z,90.40
2017-07-05T03:14:12.052Z,90.30
2017-07-05T03:16:38.614Z,90.30
2017-07-05T03:19:05.083Z,90.30
2017-07-05T03:24:10.000Z,90.20
2017-07-05T03:26:36.508Z,90.10
2017-07-05T03:29:02.965Z,90.10
2017-07-05T03:31:29.422Z,90.10
2017-07-05T03:33:55.870Z,90.00
2017-07-05T03:36:23.152Z,90.10
2017-07-05T03:38:49.582Z,90.00
2017-07-05T03:41:16.808Z,90.30
2017-07-05T03:43:43.271Z,90.00
2017-07-05T03:46:09.716Z,90.00
2017-07-05T03:48:36.157Z,90.00
2017-07-05T03:51:02.607Z,89.80
2017-07-05T03:53:29.099Z,89.70
2017-07-05T03:55:55.514Z,89.30
2017-07-05T03:58:21.949Z,89.20
2017-07-05T04:00:49.307Z,88.70
2017-07-05T04:03:16.351Z,88.40
2017-07-05T04:05:42.771Z,88.00
2017-07-05T04:08:09.179Z,87.40
2017-07-05T04:10:35.629Z,87.00
2017-07-05T04:15:59.849Z,87.10
2017-07-05T04:18:26.350Z,84.70
2017-07-05T04:20:52.906Z,84.10
2017-07-05T04:23:19.465Z,82.70
2017-07-05T04:25:45.902Z,81.80
2017-07-05T04:28:13.116Z,81.50
2017-07-05T04:30:39.539Z,81.40
2017-07-05T04:33:06.723Z,77.40
2017-07-05T04:35:33.179Z,77.30
2017-07-05T04:37:59.736Z,74.00
2017-07-05T04:40:26.180Z,70.50
2017-07-05T04:42:53.372Z,68.70
2017-07-05T04:45:20.230Z,69.50
2017-07-05T04:47:46.669Z,68.90
2017-07-05T04:50:13.871Z,70.10
2017-07-05T04:52:40.317Z,70.10
2017-07-05T04:55:06.770Z,70.30
2017-07-05T04:57:33.213Z,69.70
2017-07-05T05:00:00.406Z,73.90
2017-07-05T05:02:26.850Z,73.10
2017-07-05T05:04:53.343Z,72.10
2017-07-05T05:07:19.832Z,68.40
2017-07-05T05:09:46.301Z,63.20
2017-07-05T05:12:13.539Z,59.80
2017-07-05T05:14:40.399Z,59.20
2017-07-05T05:17:06.868Z,58.90
2017-07-05T05:19:33.904Z,58.20
2017-07-05T05:22:00.448Z,56.40
2017-07-05T05:24:26.964Z,53.20
2017-07-05T05:26:53.463Z,50.50
2017-07-05T05:29:20.020Z,48.80
2017-07-05T05:31:46.436Z,46.70
2017-07-05T05:34:13.483Z,45.20
2017-07-05T05:36:39.993Z,43.00
2017-07-05T05:39:06.461Z,41.20
2017-07-05T05:41:32.884Z,41.40
2017-07-05T05:43:59.367Z,41.80
2017-07-05T05:48:42.689Z,46.20
2017-07-05T05:51:09.731Z,46.10
2017-07-05T05:53:36.912Z,46.50
2017-07-05T05:56:03.351Z,46.50
2017-07-05T05:58:30.601Z,45.50
2017-07-05T06:00:57.202Z,45.50
2017-07-05T06:03:39.176Z,43.20
2017-07-05T06:06:06.477Z,39.10
2017-07-05T06:13:09.167Z,35.90
2017-07-05T06:15:35.659Z,35.80
2017-07-05T06:18:02.187Z,34.90
2017-07-05T06:20:28.667Z,35.40
2017-07-05T06:22:55.099Z,36.40
2017-07-05T06:25:21.661Z,34.80
2017-07-05T06:27:48.097Z,33.40
2017-07-05T06:30:15.390Z,30.40
2017-07-05T06:32:41.833Z,30.30
2017-07-05T06:35:09.248Z,29.80
2017-07-05T06:37:35.665Z,29.80
2017-07-05T06:40:02.850Z,28.90
2017-07-05T06:42:29.318Z,28.80
2017-07-05T06:44:55.778Z,28.60
2017-07-05T06:47:22.226Z,27.70
2017-07-05T06:50:03.606Z,27.00
2017-07-05T06:52:30.170Z,27.20
2017-07-05T06:54:56.658Z,27.80
2017-07-05T06:57:23.111Z,28.60
2017-07-05T06:59:49.637Z,29.80
2017-07-05T07:02:16.104Z,30.30
2017-07-05T07:04:42.653Z,31.40
2017-07-05T07:07:09.080Z,32.20
2017-07-05T07:09:36.266Z,34.40
2017-07-05T07:12:03.440Z,34.70
2017-07-05T07:14:30.615Z,35.40
2017-07-05T07:16:57.796Z,36.00
2017-07-05T07:19:24.573Z,36.00
2017-07-05T07:21:51.017Z,36.90
2017-07-05T07:24:17.995Z,36.80
2017-07-05T07:26:44.645Z,35.70
2017-07-05T07:29:11.182Z,35.40
2017-07-05T07:31:38.477Z,33.80
2017-07-05T07:34:05.038Z,33.40
2017-07-05T07:36:31.490Z,32.80
2017-07-05T07:38:58.056Z,31.20
2017-07-05T07:41:24.763Z,31.10
2017-07-05T07:43:51.220Z,30.40
2017-07-05T07:46:17.696Z,30.70
2017-07-05T07:48:45.028Z,31.50
2017-07-05T07:51:11.567Z,31.50
2017-07-05T07:53:38.085Z,32.10
2017-07-05T07:56:05.268Z,31.20
2017-07-05T07:58:31.788Z,31.10
2017-07-05T08:00:58.207Z,31.90
2017-07-05T08:03:24.758Z,32.80
2017-07-05T08:05:51.827Z,33.70
2017-07-05T08:08:18.282Z,34.70
2017-07-05T08:10:44.758Z,35.70
2017-07-05T08:13:11.368Z,36.40
2017-07-05T08:15:37.856Z,37.00
2017-07-05T08:18:04.305Z,38.30
2017-07-05T08:20:31.601Z,39.00
2017-07-05T08:22:58.068Z,39.00
2017-07-05T08:25:24.528Z,38.50
2017-07-05T08:27:50.996Z,38.20
2017-07-05T08:30:19.267Z,38.10
2017-07-05T08:32:45.812Z,38.40
2017-07-05T08:35:12.372Z,36.90
2017-07-05T08:37:38.931Z,36.70
2017-07-05T08:40:05.362Z,37.00
2017-07-05T08:42:32.659Z,37.00
2017-07-05T08:44:59.122Z,36.40
2017-07-05T08:47:26.101Z,37.40
2017-07-05T08:49:52.547Z,37.30
2017-07-05T08:52:19.053Z,36.50
2017-07-05T08:54:45.655Z,38.00
2017-07-05T08:57:12.214Z,38.60
2017-07-05T08:59:39.209Z,39.20
2017-07-05T09:02:05.685Z,39.30
2017-07-05T09:04:32.189Z,38.80
2017-07-05T09:06:59.368Z,38.20
2017-07-05T09:09:25.848Z,38.80
2017-07-05T09:11:52.369Z,38.20
2017-07-05T09:14:19.611Z,39.30
2017-07-05T09:16:46.530Z,39.30
2017-07-05T09:19:12.990Z,39.70
2017-07-05T09:21:39.537Z,39.80
2017-07-05T09:24:06.034Z,40.50
2017-07-05T09:26:32.555Z,41.00
2017-07-05T09:28:59.047Z,41.60
2017-07-05T09:31:25.570Z,41.40
2017-07-05T09:33:51.997Z,40.90
2017-07-05T09:36:19.197Z,41.50
2017-07-05T09:38:45.688Z,41.50
2017-07-05T09:41:12.157Z,42.30
2017-07-05T09:43:38.664Z,42.10
2017-07-05T09:46:05.119Z,42.80
2017-07-05T09:48:31.577Z,42.90
2017-07-05T09:50:58.057Z,42.80
2017-07-05T09:53:24.696Z,42.10
2017-07-05T09:55:51.183Z,42.00
2017-07-05T09:58:17.711Z,41.90
2017-07-05T10:00:44.230Z,42.00
2017-07-05T10:03:10.730Z,41.90
2017-07-05T10:05:37.265Z,41.90
2017-07-05T10:08:04.661Z,41.00
2017-07-05T10:10:31.219Z,41.00
2017-07-05T10:12:57.774Z,40.90
2017-07-05T10:15:24.231Z,40.90
2017-07-05T10:17:51.043Z,40.20
2017-07-05T10:20:17.595Z,40.00
2017-07-05T10:22:44.595Z,40.60
2017-07-05T10:25:11.179Z,40.80
2017-07-05T10:27:38.276Z,41.00
2017-07-05T10:30:06.079Z,42.00
2017-07-05T10:32:33.104Z,41.90
2017-07-05T10:34:59.745Z,42.00
2017-07-05T10:37:27.325Z,41.20
2017-07-05T10:39:54.803Z,40.80
2017-07-05T10:42:22.017Z,40.40
2017-07-05T10:44:48.510Z,40.40
2017-07-05T10:47:16.092Z,40.20
2017-07-05T10:49:43.883Z,40.00
2017-07-05T10:52:10.395Z,40.00
2017-07-05T10:54:37.197Z,40.30
2017-07-05T10:57:04.677Z,40.60
2017-07-05T10:59:31.731Z,40.90
2017-07-05T11:01:58.249Z,41.10
2017-07-05T11:04:25.934Z,41.70
2017-07-05T11:06:52.485Z,42.20
2017-07-05T11:09:19.180Z,42.00
2017-07-05T11:11:46.785Z,42.90
2017-07-05T11:14:13.276Z,42.90
2017-07-05T11:16:40.617Z,43.70
2017-07-05T11:19:07.106Z,43.60
2017-07-05T11:21:34.496Z,43.80
2017-07-05T11:24:01.046Z,43.80
2017-07-05T11:26:28.542Z,44.80
2017-07-05T11:28:55.202Z,44.80
2017-07-05T11:31:21.915Z,44.70
2017-07-05T11:33:48.441Z,44.30
2017-07-05T11:36:14.919Z,44.40
2017-07-05T11:38:41.703Z,45.00
2017-07-05T11:41:08.407Z,44.90
2017-07-05T11:43:35.059Z,44.80
2017-07-05T11:46:01.715Z,45.00
2017-07-05T11:48:28.415Z,45.60
2017-07-05T11:50:54.883Z,46.10
2017-07-05T11:53:21.828Z,46.30
2017-07-05T11:55:49.028Z,46.40
2017-07-05T11:58:15.676Z,46.50
2017-07-05T12:00:42.137Z,46.30
2017-07-05T12:03:09.281Z,45.70
2017-07-05T12:05:37.105Z,45.40
2017-07-05T12:08:03.920Z,44.90
2017-07-05T12:10:30.680Z,44.50
2017-07-05T12:12:57.583Z,44.40
2017-07-05T12:15:24.119Z,44.80
2017-07-05T12:17:50.835Z,44.10
2017-07-05T12:20:18.245Z,43.90
2017-07-05T12:22:45.863Z,43.40
2017-07-05T12:25:12.672Z,43.60
2017-07-05T12:27:39.795Z,42.90
2017-07-05T12:30:06.916Z,42.90
2017-07-05T12:32:33.443Z,43.30
2017-07-05T12:35:01.196Z,43.10
2017-07-05T12:37:27.636Z,43.20
2017-07-05T12:39:54.293Z,44.00
2017-07-05T12:42:20.976Z,43.80
2017-07-05T12:44:47.954Z,44.10
2017-07-05T12:47:14.682Z,43.70
2017-07-05T12:49:41.343Z,43.00
2017-07-05T12:52:08.010Z,44.20
2017-07-05T12:54:35.006Z,44.00
2017-07-05T12:57:01.632Z,44.10
2017-07-05T12:59:28.538Z,44.70
2017-07-05T13:01:56.419Z,45.30
2017-07-05T13:04:23.499Z,46.10
2017-07-05T13:06:51.775Z,47.80
2017-07-05T13:09:18.516Z,47.20
2017-07-05T13:11:45.148Z,48.10
2017-07-05T13:14:12.468Z,48.70
2017-07-05T13:16:40.081Z,48.70
2017-07-05T13:19:07.307Z,48.60
2017-07-05T13:21:34.989Z,48.10
2017-07-05T13:24:01.440Z,47.80
2017-07-05T13:26:28.459Z,47.00
2017-07-05T13:28:55.088Z,46.70
2017-07-05T13:31:23.145Z,46.20
2017-07-05T13:33:49.810Z,46.40
2017-07-05T13:36:18.944Z,45.30
2017-07-05T13:38:46.216Z,44.70
2017-07-05T13:41:13.228Z,45.00
2017-07-05T13:43:40.828Z,45.40
2017-07-05T13:46:08.173Z,45.20
2017-07-05T13:48:35.799Z,44.90
2017-07-05T13:51:03.763Z,44.00
2017-07-05T13:53:30.726Z,44.50
2017-07-05T13:55:57.343Z,45.30
2017-07-05T13:58:24.352Z,45.60
2017-07-05T14:00:50.796Z,45.90
2017-07-05T14:03:17.325Z,46.60
2017-07-05T14:05:43.985Z,46.40
2017-07-05T14:08:10.500Z,46.60
2017-07-05T14:10:37.407Z,47.00
2017-07-05T14:13:04.007Z,47.00
2017-07-05T14:15:30.476Z,47.20
2017-07-05T14:17:57.800Z,47.50
2017-07-05T14:20:24.360Z,47.60
2017-07-05T14:22:50.973Z,47.10
2017-07-05T14:25:18.333Z,46.70
2017-07-05T14:27:45.074Z,46.50
2017-07-05T14:30:12.271Z,47.10
2017-07-05T14:32:39.972Z,47.40
2017-07-05T14:35:07.208Z,47.40
2017-07-05T14:37:33.691Z,47.30
2017-07-05T14:40:00.403Z,47.00
2017-07-05T14:42:27.800Z,46.90
2017-07-05T14:44:54.338Z,47.10
2017-07-05T14:47:21.082Z,47.10
2017-07-05T14:50:02.675Z,47.30
2017-07-05T14:52:31.097Z,47.80
2017-07-05T14:54:57.987Z,47.70
2017-07-05T14:57:24.826Z,47.90
2017-07-05T14:59:52.972Z,47.90
2017-07-05T15:02:19.574Z,47.40
2017-07-05T15:04:46.387Z,47.40
2017-07-05T15:07:14.379Z,47.10
2017-07-05T15:09:41.147Z,47.10
2017-07-05T15:12:08.713Z,48.10
2017-07-05T15:14:36.239Z,48.00
2017-07-05T15:17:03.633Z,47.80
2017-07-05T15:19:30.126Z,47.70
2017-07-05T15:21:57.223Z,47.90
2017-07-05T15:24:24.703Z,48.40
2017-07-05T15:26:51.798Z,49.20
2017-07-05T15:29:19.098Z,50.10
2017-07-05T15:31:45.748Z,50.10
2017-07-05T15:34:13.488Z,49.10
2017-07-05T15:36:41.182Z,48.80
2017-07-05T15:39:07.867Z,48.30
2017-07-05T15:41:35.457Z,48.40
2017-07-05T15:44:03.443Z,48.70
2017-07-05T15:46:29.896Z,49.00
2017-07-05T15:48:57.421Z,49.10
2017-07-05T15:51:24.696Z,48.90
2017-07-05T15:53:51.925Z,49.60
2017-07-05T15:56:18.575Z,49.30
2017-07-05T15:58:45.711Z,49.70
2017-07-05T16:01:12.530Z,49.80
2017-07-05T16:03:39.320Z,50.00
2017-07-05T16:06:06.026Z,49.60
2017-07-05T16:08:32.730Z,49.30
2017-07-05T16:10:59.630Z,49.30
2017-07-05T16:13:26.968Z,49.60
2017-07-05T16:15:53.696Z,49.00
2017-07-05T16:18:20.788Z,48.80
2017-07-05T16:20:47.860Z,49.00
2017-07-05T16:23:14.516Z,49.40
2017-07-05T16:25:41.076Z,48.90
2017-07-05T16:28:07.736Z,48.70
2017-07-05T16:30:34.606Z,47.90
2017-07-05T16:33:01.159Z,47.70
2017-07-05T16:35:27.941Z,48.30
2017-07-05T16:37:54.656Z,48.70
2017-07-05T16:40:22.141Z,49.50
2017-07-05T16:42:48.826Z,49.40
2017-07-05T16:45:15.979Z,49.90
2017-07-05T16:47:43.381Z,49.10
2017-07-05T16:50:10.067Z,49.10
2017-07-05T16:52:36.804Z,50.00
2017-07-05T16:55:03.331Z,50.50
2017-07-05T16:57:30.657Z,50.20
2017-07-05T16:59:58.804Z,51.00
2017-07-05T17:02:25.389Z,50.90
2017-07-05T17:04:52.455Z,51.50
2017-07-05T17:07:19.422Z,51.60
2017-07-05T17:09:46.188Z,51.40
2017-07-05T17:12:13.062Z,51.60
2017-07-05T17:14:42.551Z,51.30
2017-07-05T17:17:10.564Z,52.00
2017-07-05T17:19:37.269Z,51.90
2017-07-05T17:22:03.897Z,52.40
2017-07-05T17:24:31.261Z,52.70
2017-07-05T17:26:58.537Z,53.20
2017-07-05T17:29:25.400Z,53.60
2017-07-05T17:31:52.266Z,54.30
2017-07-05T17:34:19.030Z,54.60
2017-07-05T17:36:45.943Z,54.80
2017-07-05T17:39:12.658Z,54.90
2017-07-05T17:41:39.525Z,54.80
2017-07-05T17:44:06.365Z,55.10
2017-07-05T17:46:32.889Z,55.30
2017-07-05T17:48:59.404Z,56.10
2017-07-05T17:51:26.670Z,57.20
2017-07-05T17:53:53.985Z,58.10
2017-07-05T17:56:20.834Z,58.10
2017-07-05T17:58:47.736Z,58.20
2017-07-05T18:01:15.349Z,59.50
2017-07-05T18:03:44.430Z,59.30
2017-07-05T18:06:10.897Z,59.30
2017-07-05T18:08:37.446Z,59.80
2017-07-05T18:11:06.511Z,59.80
2017-07-05T18:13:33.083Z,60.50
2017-07-05T18:16:00.536Z,60.90
2017-07-05T18:18:27.634Z,61.20
2017-07-05T18:20:54.692Z,61.80
2017-07-05T18:23:21.244Z,62.50
2017-07-05T18:25:48.620Z,62.90
2017-07-05T18:28:15.279Z,63.40
2017-07-05T18:30:41.806Z,63.80
2017-07-05T18:33:09.280Z,64.50
2017-07-05T18:35:36.798Z,64.90
2017-07-05T18:38:03.266Z,64.80
2017-07-05T18:40:30.095Z,65.40
2017-07-05T18:42:57.265Z,65.90
2017-07-05T18:45:24.173Z,66.50
2017-07-05T18:47:50.897Z,66.90
2017-07-05T18:50:17.887Z,67.20
2017-07-05T18:52:44.635Z,67.60
2017-07-05T18:55:11.149Z,68.10
2017-07-05T18:58:25.122Z,68.50
2017-07-05T19:00:51.887Z,68.90
2017-07-05T19:03:18.956Z,69.40
2017-07-05T19:05:46.336Z,69.80
2017-07-05T19:08:14.629Z,70.80
2017-07-05T19:10:41.257Z,70.40
2017-07-05T19:13:09.517Z,70.90
2017-07-05T19:15:36.973Z,71.20
2017-07-05T19:18:05.086Z,71.20
2017-07-05T19:20:33.966Z,71.40
2017-07-05T19:23:00.826Z,71.60
2017-07-05T19:25:27.388Z,71.60
2017-07-05T19:27:54.667Z,72.10
2017-07-05T19:30:21.219Z,72.30
2017-07-05T19:32:47.883Z,72.70
2017-07-05T19:35:14.549Z,72.90
2017-07-05T19:37:41.085Z,73.20
2017-07-05T19:40:08.401Z,73.90
2017-07-05T19:42:34.962Z,73.90
2017-07-05T19:45:02.396Z,74.20
2017-07-05T19:47:29.690Z,75.20
2017-07-05T19:49:57.072Z,75.00
2017-07-05T19:52:24.151Z,75.40
2017-07-05T19:54:51.103Z,75.80
2017-07-05T19:57:17.663Z,76.30
2017-07-05T19:59:44.254Z,77.00
2017-07-05T20:02:11.087Z,77.30
2017-07-05T20:04:37.741Z,77.20
2017-07-05T20:07:04.252Z,77.30
2017-07-05T20:09:30.940Z,77.70
2017-07-05T20:11:58.266Z,77.90
2017-07-05T20:14:24.902Z,77.90
2017-07-05T20:16:53.707Z,78.50
2017-07-05T20:19:21.595Z,78.70
2017-07-05T20:21:49.305Z,79.00
2017-07-05T20:24:17.270Z,79.10
2017-07-05T20:26:43.990Z,79.10
2017-07-05T20:29:11.308Z,79.40
2017-07-05T20:31:38.999Z,79.50
2017-07-05T20:34:05.605Z,79.60
2017-07-05T20:36:34.330Z,79.60
2017-07-05T20:39:01.837Z,79.80
2017-07-05T20:41:28.398Z,79.80
2017-07-05T20:43:55.157Z,79.80
2017-07-05T20:46:21.805Z,79.90
2017-07-05T20:48:49.199Z,79.90
2017-07-05T20:51:17.287Z,79.90
2017-07-05T20:53:43.848Z,79.80
2017-07-05T20:56:10.813Z,80.00
2017-07-05T20:58:37.373Z,80.10
2017-07-05T21:01:03.928Z,79.60
2017-07-05T21:03:30.698Z,79.90
2017-07-05T21:05:57.250Z,80.20
2017-07-05T21:08:23.758Z,80.30
2017-07-05T21:10:50.478Z,80.50
2017-07-05T21:13:17.026Z,79.90
2017-07-05T21:15:43.895Z,79.80
2017-07-05T21:18:11.170Z,79.80
2017-07-05T21:20:37.932Z,80.00
2017-07-05T21:23:04.596Z,79.80
2017-07-05T21:25:33.302Z,80.00
2017-07-05T21:28:00.575Z,80.90
2017-07-05T21:30:27.086Z,81.30
2017-07-05T21:32:53.526Z,81.70
2017-07-05T21:35:20.152Z,84.00
2017-07-05T21:37:47.424Z,84.70
2017-07-05T21:40:13.909Z,85.00
2017-07-05T21:42:40.365Z,85.50
2017-07-05T21:45:06.991Z,85.00
2017-07-05T21:47:33.461Z,85.50
2017-07-05T21:50:00.008Z,86.10
2017-07-05T21:52:26.563Z,86.50
2017-07-05T21:54:53.094Z,85.90
2017-07-05T21:57:19.557Z,86.60
2017-07-05T21:59:46.915Z,88.50
2017-07-05T22:02:13.540Z,88.50
2017-07-05T22:04:40.071Z,88.70
2017-07-05T22:07:06.581Z,89.50
2017-07-05T22:09:33.063Z,89.70
2017-07-05T22:12:00.364Z,90.10
2017-07-05T22:14:26.832Z,90.10
2017-07-05T22:16:53.892Z,90.20
2017-07-05T22:19:20.338Z,90.20
2017-07-05T22:21:47.617Z,90.10
2017-07-05T22:24:14.057Z,90.10
2017-07-05T22:26:41.228Z,90.40
2017-07-05T22:29:08.408Z,90.10
2017-07-05T22:31:35.080Z,90.10
2017-07-05T22:34:01.637Z,90.30
2017-07-05T22:36:28.087Z,90.70
2017-07-05T22:38:54.550Z,90.70
2017-07-05T22:41:20.991Z,90.60
2017-07-05T22:43:48.196Z,91.20
2017-07-05T22:46:14.663Z,91.20
2017-07-05T22:48:41.130Z,91.30
2017-07-05T22:51:07.647Z,91.40
2017-07-05T22:53:34.073Z,91.40
2017-07-05T22:56:00.499Z,90.80
2017-07-05T22:58:26.920Z,90.90
2017-07-05T23:00:53.370Z,90.80
2017-07-05T23:03:20.153Z,91.20
2017-07-05T23:05:46.588Z,91.40
2017-07-05T23:08:13.251Z,91.40
2017-07-05T23:10:39.810Z,91.30
2017-07-05T23:13:06.241Z,91.30
2017-07-05T23:15:33.437Z,91.70
2017-07-05T23:17:59.884Z,91.50
2017-07-05T23:20:26.334Z,91.40
2017-07-05T23:22:53.541Z,91.80
2017-07-05T23:25:20.087Z,91.70
2017-07-05T23:27:46.541Z,91.80
2017-07-05T23:30:13.010Z,91.80
2017-07-05T23:32:39.773Z,91.40
2017-07-05T23:35:06.315Z,91.50
2017-07-05T23:37:32.763Z,91.80
2017-07-05T23:39:59.955Z,92.10
2017-07-05T23:42:26.420Z,92.10
2017-07-05T23:44:52.882Z,92.00
2017-07-05T23:47:19.413Z,91.80
2017-07-05T23:49:46.400Z,91.80
2017-07-05T23:59:00.689Z,91.90
